Time;durP1;ratioP1;P1;durP2;ratioP2;P2;SDS_P1;SDS_P2;PMS_P1;PMS_P2;Temp;Humidity;BMP_temperature;BMP_pressure;BME280_temperature;BME280_humidity;BME280_pressure;Samples;Min_cycle;Max_cycle;Signal;HPM_P1;HPM_P2
2021/04/26 00:07:39;;;;;;;9.50;3.00;;;;;;;6.04;53.61;100694.41;20664971;28;20053;-73
2021/04/26 00:17:40;;;;;;;10.52;3.45;;;;;;;5.85;54.83;100679.31;20649026;28;20043;-73
2021/04/26 00:27:41;;;;;;;6.68;2.92;;;;;;;5.68;54.93;100655.63;20653622;28;20054;-73
2021/04/26 00:37:46;;;;;;;7.38;2.78;;;;;;;5.57;55.71;100629.13;20662751;28;20049;-72
2021/04/26 00:47:48;;;;;;;8.98;3.30;;;;;;;5.44;56.49;100612.19;20643321;28;20171;-72
2021/04/26 00:57:49;;;;;;;11.45;3.28;;;;;;;5.32;57.77;100595.28;20651629;28;20050;-72
2021/04/26 01:07:51;;;;;;;7.80;3.25;;;;;;;5.18;58.25;100582.69;20660706;28;20528;-71
2021/04/26 01:18:02;;;;;;;7.55;3.50;;;;;;;5.01;59.26;100566.78;20642223;28;20510;-71
2021/04/26 01:28:21;;;;;;;11.75;3.38;;;;;;;4.84;60.74;100568.97;20643261;28;20076;-71
2021/04/26 01:38:30;;;;;;;12.43;3.53;;;;;;;4.76;60.88;100560.59;20659546;28;20119;-71
2021/04/26 01:48:35;;;;;;;8.63;3.83;;;;;;;4.70;61.63;100555.56;20633506;28;20089;-72
2021/04/26 01:58:41;;;;;;;15.60;4.30;;;;;;;4.70;61.80;100568.53;20654939;28;20150;-71
2021/04/26 02:08:43;;;;;;;9.60;4.07;;;;;;;4.67;62.14;100579.00;20666275;28;20042;-72
2021/04/26 02:18:44;;;;;;;11.60;4.68;;;;;;;4.52;62.66;100571.63;20654240;28;20046;-72
2021/04/26 02:28:45;;;;;;;10.93;4.28;;;;;;;4.39;63.37;100578.00;20657161;28;20043;-72
2021/04/26 02:38:51;;;;;;;8.70;4.10;;;;;;;4.27;64.38;100572.25;20664537;28;20081;-72
2021/04/26 02:48:53;;;;;;;10.57;4.13;;;;;;;4.10;65.11;100561.47;20655274;28;20159;-71
2021/04/26 02:58:56;;;;;;;10.88;4.63;;;;;;;3.83;66.27;100542.28;20662362;28;20856;-71
2021/04/26 03:08:58;;;;;;;12.77;4.13;;;;;;;3.60;67.45;100543.75;20665086;28;20043;-71
2021/04/26 03:19:00;;;;;;;13.18;4.72;;;;;;;3.35;68.38;100533.94;20653800;28;20050;-72
2021/04/26 03:29:02;;;;;;;10.40;4.78;;;;;;;3.21;69.13;100525.63;20660948;28;20581;-73
2021/04/26 03:39:10;;;;;;;11.77;5.13;;;;;;;3.30;68.78;100524.59;20662754;28;20053;-72
2021/04/26 03:49:11;;;;;;;13.90;4.78;;;;;;;3.22;68.86;100519.59;20648645;28;20054;-72
2021/04/26 03:59:14;;;;;;;10.68;4.78;;;;;;;3.14;69.51;100524.09;20608132;28;20086;-72
2021/04/26 04:09:16;;;;;;;13.07;5.57;;;;;;;3.17;69.60;100516.25;20585504;28;20055;-72
2021/04/26 04:19:17;;;;;;;12.95;5.72;;;;;;;3.18;69.59;100505.03;20647345;28;20046;-71
2021/04/26 04:29:19;;;;;;;10.98;5.75;;;;;;;3.05;70.21;100513.94;20657498;28;20050;-71
2021/04/26 04:39:20;;;;;;;18.00;6.40;;;;;;;2.96;70.73;100512.41;20657735;28;20188;-72
2021/04/26 04:49:21;;;;;;;14.75;5.95;;;;;;;2.97;69.99;100495.16;20644229;28;20046;-71
2021/04/26 04:59:22;;;;;;;14.95;5.57;;;;;;;2.99;70.74;100503.75;20655561;28;20070;-72
2021/04/26 05:09:23;;;;;;;13.80;5.65;;;;;;;3.28;69.35;100511.69;20654910;28;20069;-72
2021/04/26 05:19:25;;;;;;;10.20;5.13;;;;;;;3.35;68.43;100513.25;20680504;23;20053;-69
2021/04/26 05:29:26;;;;;;;16.50;5.13;;;;;;;3.53;67.67;100524.91;20808775;28;20068;-69
2021/04/26 05:39:27;;;;;;;16.58;4.93;;;;;;;3.90;67.22;100535.25;20737082;28;20160;-68
2021/04/26 05:49:28;;;;;;;12.35;5.43;;;;;;;4.18;66.17;100528.44;20736815;28;20050;-68
2021/04/26 05:59:29;;;;;;;13.45;5.82;;;;;;;4.54;65.08;100536.97;20739387;28;20543;-67
2021/04/26 06:09:30;;;;;;;18.02;5.65;;;;;;;4.97;63.37;100531.44;20717751;28;20104;-69
2021/04/26 06:19:31;;;;;;;12.27;5.30;;;;;;;5.23;62.77;100532.41;20735739;28;20056;-70
2021/04/26 06:29:32;;;;;;;15.43;5.78;;;;;;;5.59;61.26;100528.66;20735491;28;20093;-69
2021/04/26 06:39:33;;;;;;;11.43;5.03;;;;;;;6.19;58.51;100536.25;20734491;28;20449;-69
2021/04/26 06:49:34;;;;;;;12.52;4.93;;;;;;;6.63;54.29;100519.06;20734222;28;20873;-69
2021/04/26 06:59:34;;;;;;;9.60;4.80;;;;;;;6.82;54.66;100514.88;20733821;28;20053;-69
2021/04/26 07:09:36;;;;;;;11.10;5.10;;;;;;;7.03;52.78;100505.44;20708951;28;20121;-69
2021/04/26 07:19:38;;;;;;;12.25;5.15;;;;;;;7.29;52.66;100499.22;20704660;28;20080;-68
2021/04/26 07:29:39;;;;;;;11.57;4.82;;;;;;;7.53;51.92;100480.00;20725201;28;20050;-68
2021/04/26 07:39:40;;;;;;;12.32;5.05;;;;;;;7.83;52.20;100475.28;20726869;28;20049;-68
2021/04/26 07:49:41;;;;;;;10.60;5.50;;;;;;;8.13;50.17;100475.75;20716723;28;20042;-69
2021/04/26 08:00:05;;;;;;;15.05;5.28;;;;;;;8.34;49.76;100477.47;20761425;28;20502;-69
2021/04/26 08:10:07;;;;;;;15.57;5.13;;;;;;;8.66;49.87;100469.97;20665973;28;20461;-69
2021/04/26 08:20:08;;;;;;;10.63;4.43;;;;;;;9.01;48.93;100464.00;20666473;28;20096;-69
2021/04/26 08:30:10;;;;;;;9.27;4.78;;;;;;;9.28;47.82;100452.25;20728278;28;20095;-70
2021/04/26 08:40:12;;;;;;;12.90;5.00;;;;;;;9.60;50.21;100442.81;20743913;28;20042;-70
2021/04/26 08:50:13;;;;;;;10.38;4.05;;;;;;;10.21;47.08;100440.59;20738536;28;20052;-70
2021/04/26 09:00:16;;;;;;;11.52;5.35;;;;;;;10.25;45.22;100439.53;20731846;28;20061;-70
2021/04/26 09:10:48;;;;;;;10.40;4.82;;;;;;;10.66;44.72;100450.41;20734569;28;20116;-70
2021/04/26 09:20:49;;;;;;;15.48;4.80;;;;;;;11.10;45.09;100444.50;20722552;28;20517;-70
2021/04/26 09:30:52;;;;;;;9.77;4.70;;;;;;;11.16;43.03;100420.59;20724374;28;20406;-70
2021/04/26 09:41:31;;;;;;;10.60;4.75;;;;;;;11.51;42.71;100421.22;20722683;28;20050;-70
2021/04/26 09:51:32;;;;;;;16.30;5.38;;;;;;;11.73;40.60;100421.69;20722216;28;20049;-70
2021/04/26 10:01:34;;;;;;;13.65;4.80;;;;;;;11.98;40.83;100393.06;20733330;28;20489;-70
2021/04/26 10:11:36;;;;;;;8.90;4.65;;;;;;;12.21;40.07;100382.94;20731984;28;20050;-70
2021/04/26 10:21:38;;;;;;;11.75;4.45;;;;;;;12.57;39.83;100369.31;20730015;28;20053;-70
2021/04/26 10:32:16;;;;;;;10.30;4.18;;;;;;;12.69;38.54;100356.28;20733278;28;20064;-69
2021/04/26 10:42:31;;;;;;;9.70;4.10;;;;;;;13.05;38.15;100346.97;20693680;28;20140;-70
2021/04/26 10:52:36;;;;;;;10.53;4.60;;;;;;;13.29;37.19;100324.34;20722294;28;20050;-70
2021/04/26 11:02:37;;;;;;;10.57;4.20;;;;;;;13.67;37.97;100304.19;20740947;28;20053;-70
2021/04/26 11:12:38;;;;;;;7.88;3.83;;;;;;;14.02;37.11;100285.94;20745510;28;20058;-71
2021/04/26 11:22:39;;;;;;;9.30;3.83;;;;;;;13.79;36.14;100270.09;20736334;28;20061;-69
2021/04/26 11:32:58;;;;;;;10.27;4.00;;;;;;;14.19;35.37;100250.56;20728413;28;20054;-70
2021/04/26 11:43:05;;;;;;;8.30;3.47;;;;;;;14.28;34.81;100222.72;20740516;28;20096;-69
2021/04/26 11:53:06;;;;;;;15.48;3.90;;;;;;;14.11;32.60;100214.25;20717627;28;20041;-69
2021/04/26 12:03:09;;;;;;;10.63;4.05;;;;;;;14.24;34.18;100203.66;20738376;28;20057;-70
2021/04/26 12:13:11;;;;;;;7.47;3.50;;;;;;;14.35;32.26;100174.78;20765948;28;20046;-70
2021/04/26 12:23:18;;;;;;;11.38;3.80;;;;;;;14.46;33.43;100166.97;20738831;28;20057;-70
2021/04/26 12:33:25;;;;;;;7.88;3.72;;;;;;;14.50;33.27;100138.59;20744501;28;20481;-71
2021/04/26 12:43:35;;;;;;;8.35;3.33;;;;;;;14.98;31.68;100129.59;20744714;28;20054;-71
2021/04/26 12:53:42;;;;;;;9.15;3.60;;;;;;;15.19;31.45;100121.84;20736134;28;20049;-71
2021/04/26 13:03:53;;;;;;;6.20;3.58;;;;;;;15.06;31.09;100102.66;20748405;28;20053;-71
2021/04/26 13:13:59;;;;;;;13.07;3.55;;;;;;;15.43;31.61;100095.38;20726633;28;20133;-71
2021/04/26 13:24:11;;;;;;;9.05;4.10;;;;;;;15.37;30.11;100062.41;20724583;28;20081;-71
2021/04/26 13:34:13;;;;;;;7.25;2.72;;;;;;;15.54;29.66;100047.91;20726548;28;20044;-71
2021/04/26 13:44:16;;;;;;;7.85;3.15;;;;;;;15.46;29.51;100037.06;20734058;28;20057;-73
2021/04/26 13:54:16;;;;;;;8.77;3.33;;;;;;;15.67;30.22;100011.63;20725176;28;20042;-71
2021/04/26 14:04:17;;;;;;;6.88;3.75;;;;;;;16.00;27.89;100005.38;20730322;28;20100;-69
2021/04/26 14:14:19;;;;;;;8.77;3.67;;;;;;;15.89;28.08;99986.13;20729100;28;20509;-70
2021/04/26 14:24:20;;;;;;;6.53;3.10;;;;;;;15.85;27.75;99977.59;20714619;28;20162;-68
2021/04/26 14:34:21;;;;;;;7.75;2.80;;;;;;;15.98;26.14;99978.28;20744035;28;20046;-68
2021/04/26 14:44:23;;;;;;;5.32;2.45;;;;;;;16.19;27.71;99960.66;20726170;28;20096;-69
2021/04/26 14:54:24;;;;;;;6.90;2.55;;;;;;;15.78;27.16;99950.06;20728276;28;20046;-68
2021/04/26 15:04:27;;;;;;;5.03;2.13;;;;;;;16.10;25.28;99948.19;20730223;28;20520;-68
2021/04/26 15:14:28;;;;;;;6.38;2.40;;;;;;;15.93;23.16;99946.16;20748681;28;20104;-69
2021/04/26 15:24:29;;;;;;;8.52;2.22;;;;;;;16.21;23.56;99924.38;20744255;28;20077;-70
2021/04/26 15:34:31;;;;;;;8.30;2.50;;;;;;;15.98;23.32;99922.00;20743845;28;20041;-69
2021/04/26 15:44:33;;;;;;;8.98;2.25;;;;;;;16.02;22.86;99910.22;20744126;28;20038;-68
2021/04/26 15:54:34;;;;;;;6.68;2.50;;;;;;;16.15;24.49;99905.59;20715857;28;20058;-70
2021/04/26 16:04:35;;;;;;;9.55;2.40;;;;;;;16.07;24.89;99889.53;20707007;28;20042;-69
2021/04/26 16:14:37;;;;;;;5.95;2.30;;;;;;;15.77;25.35;99874.50;20742755;28;20479;-69
2021/04/26 16:24:38;;;;;;;6.13;2.63;;;;;;;16.06;24.97;99858.81;20715686;28;20112;-69
2021/04/26 16:34:39;;;;;;;4.45;1.80;;;;;;;16.05;24.83;99831.59;20726045;28;20046;-70
2021/04/26 16:44:40;;;;;;;9.27;2.80;;;;;;;16.20;26.04;99819.69;20734747;28;20069;-69
2021/04/26 16:54:41;;;;;;;7.93;2.67;;;;;;;16.05;24.46;99820.22;20729395;28;20052;-69
2021/04/26 17:04:44;;;;;;;4.82;2.28;;;;;;;15.80;26.67;99808.25;20736222;28;20049;-69
2021/04/26 17:14:45;;;;;;;7.57;3.25;;;;;;;15.80;25.00;99808.25;20740026;28;20053;-69
2021/04/26 17:24:46;;;;;;;4.70;2.25;;;;;;;15.56;26.37;99795.34;20721216;28;20050;-71
2021/04/26 17:34:48;;;;;;;6.22;2.03;;;;;;;15.41;25.78;99778.16;20698098;28;20050;-69
2021/04/26 17:44:49;;;;;;;10.90;2.40;;;;;;;15.24;25.51;99776.91;20724616;28;20461;-71
2021/04/26 17:54:50;;;;;;;6.65;2.28;;;;;;;14.92;26.68;99768.22;20723204;28;20093;-71
2021/04/26 18:04:51;;;;;;;6.53;2.33;;;;;;;14.23;28.18;99774.69;20721916;28;20442;-71
2021/04/26 18:14:52;;;;;;;8.55;2.88;;;;;;;13.79;28.18;99786.91;20694277;28;20046;-70
2021/04/26 18:24:53;;;;;;;8.88;2.10;;;;;;;13.43;28.54;99794.97;20752039;28;20057;-70
2021/04/26 18:34:58;;;;;;;4.60;1.80;;;;;;;13.08;29.74;99811.56;20719121;28;20045;-70
2021/04/26 18:44:59;;;;;;;4.97;2.27;;;;;;;12.76;28.71;99827.03;20709835;28;20525;-70
2021/04/26 18:55:00;;;;;;;19.73;3.03;;;;;;;12.37;29.75;99845.66;20726976;28;20049;-70
2021/04/26 19:05:02;;;;;;;11.02;2.78;;;;;;;12.13;30.48;99855.22;20734880;28;20054;-70
2021/04/26 19:15:05;;;;;;;8.75;2.45;;;;;;;11.80;31.07;99867.06;20731182;28;20456;-70
2021/04/26 19:25:09;;;;;;;8.13;2.03;;;;;;;11.65;31.35;99870.69;20743212;28;20409;-70
2021/04/26 19:35:11;;;;;;;6.40;2.22;;;;;;;11.45;31.91;99871.19;20733169;28;20042;-70
2021/04/26 19:45:17;;;;;;;10.30;2.50;;;;;;;11.13;31.98;99876.75;20745462;28;20104;-69
2021/04/26 19:55:18;;;;;;;4.55;1.77;;;;;;;10.94;31.60;99870.19;20729984;28;20516;-70
2021/04/26 20:05:20;;;;;;;5.90;2.25;;;;;;;10.79;31.34;99858.91;20745965;28;20042;-69
2021/04/26 20:15:21;;;;;;;6.45;2.63;;;;;;;10.71;30.80;99855.97;20722070;28;20544;-70
2021/04/26 20:25:24;;;;;;;10.02;3.45;;;;;;;10.47;30.98;99854.84;20733806;28;20488;-68
2021/04/26 20:35:26;;;;;;;5.55;2.08;;;;;;;10.37;31.01;99848.53;20745588;28;20042;-68
2021/04/26 20:45:28;;;;;;;7.82;2.20;;;;;;;10.22;31.47;99850.31;20745210;28;20052;-68
2021/04/26 20:55:32;;;;;;;4.50;2.00;;;;;;;9.91;32.29;99840.84;20734275;28;20490;-69
2021/04/26 21:05:33;;;;;;;5.47;1.60;;;;;;;9.72;32.76;99829.81;20721998;28;20041;-70
2021/04/26 21:15:34;;;;;;;4.82;1.85;;;;;;;9.51;32.83;99825.88;20714465;28;20104;-68
2021/04/26 21:25:35;;;;;;;6.10;2.38;;;;;;;9.41;32.99;99808.13;20707054;28;20046;-71
2021/04/26 21:35:36;;;;;;;6.88;2.40;;;;;;;9.16;33.79;99813.09;20720417;28;20046;-70
2021/04/26 21:45:37;;;;;;;5.80;1.63;;;;;;;8.98;34.18;99801.13;20729588;28;20532;-71
2021/04/26 21:55:38;;;;;;;4.82;1.50;;;;;;;8.82;33.96;99805.53;20741747;28;20046;-73
2021/04/26 22:05:39;;;;;;;5.15;1.70;;;;;;;8.42;36.31;99791.25;20740139;28;20492;-71
2021/04/26 22:15:41;;;;;;;3.88;1.55;;;;;;;7.86;37.48;99796.88;20759737;28;20072;-70
2021/04/26 22:25:42;;;;;;;6.70;2.28;;;;;;;7.92;36.57;99796.56;20762184;28;20104;-71
2021/04/26 22:35:43;;;;;;;8.63;1.92;;;;;;;7.81;36.70;99804.94;20735366;28;20050;-71
2021/04/26 22:45:44;;;;;;;5.25;1.92;;;;;;;7.60;37.79;99787.81;20719960;28;20481;-71
2021/04/26 22:55:45;;;;;;;4.88;1.70;;;;;;;7.41;38.10;99784.50;20748624;28;20100;-72
2021/04/26 23:05:46;;;;;;;5.18;2.20;;;;;;;7.22;38.42;99776.75;20733576;28;20073;-72
2021/04/26 23:15:48;;;;;;;4.18;1.80;;;;;;;7.19;38.38;99774.31;20750501;28;20092;-72
2021/04/26 23:25:49;;;;;;;4.68;1.70;;;;;;;7.06;38.55;99761.06;20749724;28;20038;-72
2021/04/26 23:35:50;;;;;;;8.10;1.75;;;;;;;7.02;38.79;99745.69;20748423;28;20563;-72
2021/04/26 23:45:51;;;;;;;4.47;1.55;;;;;;;6.94;39.06;99747.84;20750049;28;20490;-71
2021/04/26 23:55:52;;;;;;;4.90;1.70;;;;;;;6.87;39.86;99742.09;20748351;28;20068;-71
